createdAt,value
2022-07-30T00:01:34.216Z,101097.25
2022-07-30T00:04:02.263Z,101095.75
2022-07-30T00:06:28.669Z,101091.47
2022-07-30T00:08:55.029Z,101087.09
2022-07-30T00:11:27.238Z,101089.97
2022-07-30T00:13:54.182Z,101095.03
2022-07-30T00:16:20.574Z,101094.28
2022-07-30T00:18:46.990Z,101092.13
2022-07-30T00:21:32.082Z,101092.78
2022-07-30T00:24:02.258Z,101094.28
2022-07-30T00:26:28.890Z,101092.03
2022-07-30T00:28:55.261Z,101081.22
2022-07-30T00:31:21.618Z,101084.13
2022-07-30T00:33:48.006Z,101092.03
2022-07-30T00:36:14.374Z,101086.25
2022-07-30T00:38:40.747Z,101084.78
2022-07-30T00:41:07.177Z,101083.28
2022-07-30T00:43:33.561Z,101082.63
2022-07-30T00:45:59.978Z,101076.75
2022-07-30T00:48:26.384Z,101081.06
2022-07-30T00:50:52.766Z,101081.06
2022-07-30T00:53:19.156Z,101080.34
2022-07-30T00:55:45.541Z,101083.91
2022-07-30T00:58:11.915Z,101078.19
2022-07-30T01:00:38.274Z,101075.28
2022-07-30T01:03:04.917Z,101078.19
2022-07-30T01:05:31.289Z,101076.69
2022-07-30T01:07:57.663Z,101078.13
2022-07-30T01:10:24.044Z,101078.84
2022-07-30T01:12:52.640Z,101072.31
2022-07-30T01:15:19.159Z,101073.78
2022-07-30T01:17:46.724Z,101078.13
2022-07-30T01:20:21.275Z,101072.31
2022-07-30T01:22:52.437Z,101078.13
2022-07-30T01:25:38.892Z,101078.13
2022-07-30T01:28:09.290Z,101076.63
2022-07-30T01:30:42.945Z,101078.78
2022-07-30T01:33:12.010Z,101078.78
2022-07-30T01:35:38.369Z,101082.41
2022-07-30T01:38:04.998Z,101076.63
2022-07-30T01:40:31.345Z,101078.78
2022-07-30T01:42:58.530Z,101073.66
2022-07-30T01:45:25.347Z,101067.13
2022-07-30T01:47:52.206Z,101076.56
2022-07-30T01:50:18.723Z,101070.78
2022-07-30T01:52:45.597Z,101075.06
2022-07-30T01:55:25.884Z,101075.81
2022-07-30T01:57:52.291Z,101072.19
2022-07-30T02:00:18.890Z,101066.38
2022-07-30T02:02:48.326Z,101070.72
2022-07-30T02:05:14.829Z,101077.97
2022-07-30T02:08:00.439Z,101083.75
2022-07-30T02:10:28.636Z,101083.75
2022-07-30T02:12:55.416Z,101082.28
2022-07-30T02:15:26.367Z,101092.34
2022-07-30T02:17:52.987Z,101080.78
2022-07-30T02:20:19.528Z,101085.81
2022-07-30T02:22:51.573Z,101075.00
2022-07-30T02:25:19.021Z,101077.16
2022-07-30T02:27:45.388Z,101070.63
2022-07-30T02:30:12.110Z,101070.56
2022-07-30T02:32:38.842Z,101077.81
2022-07-30T02:35:12.095Z,101067.75
2022-07-30T02:37:43.911Z,101066.25
2022-07-30T02:40:11.391Z,101073.53
2022-07-30T02:42:37.785Z,101077.16
2022-07-30T02:45:04.835Z,101072.78
2022-07-30T02:47:31.246Z,101070.63
2022-07-30T02:50:02.314Z,101074.91
2022-07-30T02:52:28.714Z,101070.56
2022-07-30T02:54:56.330Z,101071.28
2022-07-30T02:57:22.695Z,101068.41
2022-07-30T02:59:49.075Z,101087.91
2022-07-30T03:02:15.565Z,101077.81
2022-07-30T03:04:43.083Z,101080.63
2022-07-30T03:07:09.833Z,101090.78
2022-07-30T03:09:52.507Z,101092.19
2022-07-30T03:12:19.380Z,101096.50
2022-07-30T03:14:45.770Z,101091.44
2022-07-30T03:17:12.417Z,101097.91
2022-07-30T03:19:39.092Z,101102.28
2022-07-30T03:22:06.831Z,101102.28
2022-07-30T03:24:33.200Z,101089.91
2022-07-30T03:27:01.189Z,101099.38
2022-07-30T03:29:28.898Z,101099.38
2022-07-30T03:31:55.329Z,101113.09
2022-07-30T03:34:21.880Z,101105.16
2022-07-30T03:36:48.620Z,101102.28
2022-07-30T03:39:15.034Z,101095.03
2022-07-30T03:41:41.453Z,101101.53
2022-07-30T03:44:12.170Z,101100.03
2022-07-30T03:46:39.423Z,101103.69
2022-07-30T03:49:06.028Z,101100.03
2022-07-30T03:51:33.374Z,101108.06
2022-07-30T03:53:59.874Z,101093.59
2022-07-30T03:56:44.927Z,101097.84
2022-07-30T03:59:31.592Z,101105.09
2022-07-30T04:02:07.104Z,101105.00
2022-07-30T04:04:53.715Z,101100.66
2022-07-30T04:07:20.218Z,101110.72
2022-07-30T04:09:46.616Z,101103.53
2022-07-30T04:12:27.521Z,101109.97
2022-07-30T04:14:53.900Z,101115.75
2022-07-30T04:17:21.897Z,101116.50
2022-07-30T04:19:49.446Z,101116.50
2022-07-30T04:22:16.719Z,101117.25
2022-07-30T04:24:43.098Z,101109.31
2022-07-30T04:27:09.491Z,101112.88
2022-07-30T04:29:35.962Z,101116.50
2022-07-30T04:32:02.357Z,101117.16
2022-07-30T04:34:31.368Z,101123.69
2022-07-30T04:36:57.961Z,101125.16
2022-07-30T04:39:24.592Z,101123.03
2022-07-30T04:41:51.163Z,101125.09
2022-07-30T04:44:34.354Z,101132.34
2022-07-30T04:47:21.862Z,101130.13
2022-07-30T04:50:02.648Z,101126.56
2022-07-30T04:52:29.257Z,101130.88
2022-07-30T04:54:56.845Z,101128.72
2022-07-30T04:57:23.246Z,101126.50
2022-07-30T04:59:49.858Z,101120.72
2022-07-30T05:02:16.436Z,101120.72
2022-07-30T05:04:42.980Z,101133.00
2022-07-30T05:07:09.949Z,101128.72
2022-07-30T05:09:36.346Z,101134.44
2022-07-30T05:12:03.227Z,101130.81
2022-07-30T05:14:29.715Z,101132.94
2022-07-30T05:16:56.414Z,101132.19
2022-07-30T05:19:22.947Z,101130.72
2022-07-30T05:21:49.386Z,101125.69
2022-07-30T05:24:15.826Z,101126.41
2022-07-30T05:26:49.213Z,101127.06
2022-07-30T05:29:19.592Z,101128.50
2022-07-30T05:31:50.826Z,101129.97
2022-07-30T05:34:17.936Z,101126.41
2022-07-30T05:36:45.114Z,101124.94
2022-07-30T05:39:13.437Z,101120.63
2022-07-30T05:41:59.847Z,101122.06
2022-07-30T05:44:32.572Z,101119.16
2022-07-30T05:46:59.094Z,101117.66
2022-07-30T05:49:25.691Z,101116.94
2022-07-30T05:51:54.512Z,101116.19
2022-07-30T05:54:21.547Z,101122.88
2022-07-30T05:57:09.011Z,101113.69
2022-07-30T05:59:37.709Z,101119.47
2022-07-30T06:02:08.478Z,101132.53
2022-07-30T06:04:52.611Z,101127.75
2022-07-30T06:07:19.169Z,101130.25
2022-07-30T06:09:45.618Z,101133.81
2022-07-30T06:12:12.902Z,101131.75
2022-07-30T06:14:40.643Z,101134.56
2022-07-30T06:17:10.270Z,101133.06
2022-07-30T06:20:01.909Z,101126.19
2022-07-30T06:22:32.534Z,101133.00
2022-07-30T06:25:05.837Z,101130.88
2022-07-30T06:27:36.639Z,101138.72
2022-07-30T06:30:06.875Z,101140.22
2022-07-30T06:32:33.474Z,101148.19
2022-07-30T06:35:04.526Z,101151.34
2022-07-30T06:38:05.865Z,101144.66
2022-07-30T06:40:18.666Z,101158.28
2022-07-30T06:42:58.008Z,101153.09
2022-07-30T06:45:36.274Z,101145.09
2022-07-30T06:48:30.162Z,101149.47
2022-07-30T06:50:57.927Z,101148.16
2022-07-30T06:53:24.997Z,101154.75
2022-07-30T06:56:11.595Z,101156.22
2022-07-30T06:58:48.086Z,101151.94
2022-07-30T07:01:34.515Z,101160.66
2022-07-30T07:04:01.101Z,101157.03
2022-07-30T07:06:27.615Z,101159.28
2022-07-30T07:08:54.047Z,101157.13
2022-07-30T07:11:28.238Z,101158.63
2022-07-30T07:13:58.449Z,101160.09
2022-07-30T07:16:33.171Z,101154.31
2022-07-30T07:19:06.726Z,101161.56
2022-07-30T07:21:33.097Z,101161.56
2022-07-30T07:24:00.545Z,101157.28
2022-07-30T07:26:45.682Z,101157.28
2022-07-30T07:29:12.093Z,101168.19
2022-07-30T07:32:06.033Z,101166.03
2022-07-30T07:34:24.873Z,101170.38
2022-07-30T07:36:52.611Z,101158.81
2022-07-30T07:39:20.096Z,101166.09
2022-07-30T07:41:48.769Z,101169.00
2022-07-30T07:44:17.743Z,101169.00
2022-07-30T07:46:44.139Z,101174.00
2022-07-30T07:49:10.623Z,101165.34
2022-07-30T07:51:48.184Z,101173.28
2022-07-30T07:54:24.121Z,101174.78
2022-07-30T07:56:55.825Z,101170.47
2022-07-30T07:59:36.388Z,101170.47
2022-07-30T08:02:08.813Z,101169.72
2022-07-30T08:04:54.333Z,101169.00
2022-07-30T08:07:44.871Z,101166.09
2022-07-30T08:10:29.558Z,101176.25
2022-07-30T08:13:48.409Z,101170.47
2022-07-30T08:16:27.000Z,101173.34
2022-07-30T08:19:13.366Z,101169.00
2022-07-30T08:21:43.258Z,101169.00
2022-07-30T08:24:09.710Z,101163.22
2022-07-30T08:26:36.181Z,101162.44
2022-07-30T08:29:02.567Z,101159.56
2022-07-30T08:31:28.966Z,101155.94
2022-07-30T08:33:55.368Z,101153.03
2022-07-30T08:36:25.785Z,101158.81
2022-07-30T08:38:53.267Z,101156.66
2022-07-30T08:41:20.483Z,101158.81
2022-07-30T08:43:47.621Z,101158.81
2022-07-30T08:46:14.302Z,101158.91
2022-07-30T08:48:52.331Z,101150.22
2022-07-30T08:51:19.464Z,101161.78
2022-07-30T08:54:04.682Z,101158.16
2022-07-30T08:56:31.100Z,101163.22
2022-07-30T08:58:57.453Z,101163.13
2022-07-30T09:01:23.826Z,101156.09
2022-07-30T09:03:50.187Z,101153.28
2022-07-30T09:06:16.549Z,101149.72
2022-07-30T09:08:43.831Z,101156.25
2022-07-30T09:11:10.942Z,101153.28
2022-07-30T09:13:38.081Z,101148.16
2022-07-30T09:16:05.677Z,101156.09
2022-07-30T09:18:38.982Z,101148.84
2022-07-30T09:21:15.771Z,101158.97
2022-07-30T09:23:58.342Z,101148.88
2022-07-30T09:26:52.159Z,101153.34
2022-07-30T09:29:38.502Z,101154.75
2022-07-30T09:32:49.181Z,101154.75
2022-07-30T09:35:34.017Z,101148.97
2022-07-30T09:38:26.519Z,101163.44
2022-07-30T09:40:57.505Z,101156.25
2022-07-30T09:43:49.294Z,101154.75
2022-07-30T09:46:40.278Z,101163.44
2022-07-30T09:49:19.524Z,101159.88
2022-07-30T09:51:54.514Z,101164.44
2022-07-30T09:54:42.731Z,101163.59
2022-07-30T09:57:25.626Z,101158.66
2022-07-30T09:59:53.790Z,101162.94
2022-07-30T10:02:21.330Z,101162.94
2022-07-30T10:05:08.632Z,101150.63
2022-07-30T10:07:43.730Z,101159.31
2022-07-30T10:10:10.430Z,101157.91
2022-07-30T10:12:36.799Z,101159.53
2022-07-30T10:15:07.287Z,101155.81
2022-07-30T10:17:34.317Z,101151.47
2022-07-30T10:20:19.129Z,101155.00
2022-07-30T10:23:08.204Z,101155.16
2022-07-30T10:25:56.030Z,101163.75
2022-07-30T10:28:43.492Z,101155.09
2022-07-30T10:31:47.977Z,101155.81
2022-07-30T10:33:56.567Z,101150.78
2022-07-30T10:36:24.454Z,101150.84
2022-07-30T10:38:52.825Z,101158.22
2022-07-30T10:41:42.523Z,101147.47
2022-07-30T10:44:12.925Z,101153.91
2022-07-30T10:47:07.406Z,101150.19
2022-07-30T10:49:40.603Z,101148.69
2022-07-30T10:52:08.442Z,101153.09
2022-07-30T10:54:36.536Z,101135.09
2022-07-30T10:57:22.723Z,101139.44
2022-07-30T10:59:59.840Z,101144.50
2022-07-30T11:02:27.438Z,101139.44
2022-07-30T11:05:13.952Z,101140.94
2022-07-30T11:07:41.746Z,101140.25
2022-07-30T11:10:32.153Z,101132.31
2022-07-30T11:12:58.502Z,101130.91
2022-07-30T11:15:24.898Z,101133.88
2022-07-30T11:18:01.434Z,101137.59
2022-07-30T11:20:28.315Z,101138.03
2022-07-30T11:23:05.773Z,101135.19
2022-07-30T11:25:50.416Z,101136.63
2022-07-30T11:28:33.274Z,101146.31
2022-07-30T11:31:01.515Z,101139.44
2022-07-30T11:33:36.598Z,101136.81
2022-07-30T11:36:06.659Z,101136.81
2022-07-30T11:38:52.530Z,101131.72
2022-07-30T11:41:18.902Z,101133.28
2022-07-30T11:43:45.260Z,101134.63
2022-07-30T11:46:15.831Z,101127.34
2022-07-30T11:48:44.517Z,101121.78
2022-07-30T11:51:10.905Z,101125.53
2022-07-30T11:53:37.252Z,101126.28
2022-07-30T11:56:03.811Z,101134.28
2022-07-30T11:58:34.886Z,101137.69
2022-07-30T12:01:02.013Z,101134.13
2022-07-30T12:03:29.923Z,101128.34
2022-07-30T12:05:56.386Z,101132.84
2022-07-30T12:08:36.029Z,101125.50
2022-07-30T12:11:02.866Z,101126.84
2022-07-30T12:13:45.100Z,101115.00
2022-07-30T12:16:18.328Z,101126.44
2022-07-30T12:18:45.006Z,101132.06
2022-07-30T12:21:17.484Z,101126.81
2022-07-30T12:23:53.434Z,101126.75
2022-07-30T12:26:20.314Z,101123.03
2022-07-30T12:28:46.886Z,101140.41
2022-07-30T12:31:14.677Z,101141.06
2022-07-30T12:33:42.305Z,101132.47
2022-07-30T12:36:10.309Z,101131.78
2022-07-30T12:38:43.454Z,101130.31
2022-07-30T12:41:09.914Z,101132.53
2022-07-30T12:43:46.286Z,101129.72
2022-07-30T12:46:15.059Z,101114.63
2022-07-30T12:48:57.937Z,101132.81
2022-07-30T12:51:25.859Z,101123.47
2022-07-30T12:53:52.843Z,101117.53
2022-07-30T12:56:26.121Z,101119.03
2022-07-30T12:58:52.683Z,101116.28
2022-07-30T13:01:19.125Z,101111.88
2022-07-30T13:03:45.548Z,101125.53
2022-07-30T13:06:11.883Z,101121.91
2022-07-30T13:08:44.575Z,101117.66
2022-07-30T13:11:10.937Z,101123.47
2022-07-30T13:13:37.299Z,101120.50
2022-07-30T13:16:04.238Z,101123.47
2022-07-30T13:18:30.766Z,101115.50
2022-07-30T13:20:57.395Z,101116.28
2022-07-30T13:23:23.941Z,101120.72
2022-07-30T13:25:50.539Z,101115.00
2022-07-30T13:28:16.904Z,101119.28
2022-07-30T13:30:43.287Z,101119.28
2022-07-30T13:33:09.638Z,101120.06
2022-07-30T13:35:36.026Z,101123.75
2022-07-30T13:38:02.521Z,101115.06
2022-07-30T13:40:32.015Z,101118.69
2022-07-30T13:42:58.719Z,101116.59
2022-07-30T13:45:25.107Z,101102.94
2022-07-30T13:47:51.471Z,101097.81
2022-07-30T13:50:17.861Z,101096.34
2022-07-30T13:52:44.228Z,101094.19
2022-07-30T13:55:10.583Z,101099.25
2022-07-30T13:57:36.941Z,101105.75
2022-07-30T14:00:05.616Z,101106.47
2022-07-30T14:02:32.248Z,101107.94
2022-07-30T14:04:58.677Z,101102.06
2022-07-30T14:07:25.065Z,101100.59
2022-07-30T14:09:54.400Z,101106.31
2022-07-30T14:12:21.085Z,101107.84
2022-07-30T14:14:47.441Z,101107.78
2022-07-30T14:17:13.838Z,101096.22
2022-07-30T14:19:40.203Z,101093.47
2022-07-30T14:22:06.651Z,101088.41
2022-07-30T14:24:33.214Z,101081.94
2022-07-30T14:27:00.116Z,101092.78
2022-07-30T14:29:26.847Z,101091.38
2022-07-30T14:31:53.299Z,101094.25
2022-07-30T14:34:19.650Z,101082.03
2022-07-30T14:36:46.030Z,101082.75
2022-07-30T14:39:12.394Z,101079.94
2022-07-30T14:41:38.800Z,101089.41
2022-07-30T14:44:05.354Z,101093.94
2022-07-30T14:46:31.914Z,101092.38
2022-07-30T14:48:58.346Z,101095.06
2022-07-30T14:51:26.772Z,101091.38
2022-07-30T14:53:54.048Z,101094.94
2022-07-30T14:56:22.154Z,101097.09
2022-07-30T14:58:48.702Z,101099.25
2022-07-30T15:01:16.707Z,101100.66
2022-07-30T15:03:43.689Z,101091.22
2022-07-30T15:06:12.550Z,101102.06
2022-07-30T15:08:38.908Z,101090.50
2022-07-30T15:11:06.112Z,101097.69
2022-07-30T15:13:34.649Z,101096.28
2022-07-30T15:16:02.728Z,101093.47
2022-07-30T15:18:29.108Z,101093.47
2022-07-30T15:20:56.286Z,101093.59
2022-07-30T15:23:22.651Z,101086.31
2022-07-30T15:25:49.038Z,101093.59
2022-07-30T15:28:15.402Z,101096.50
2022-07-30T15:30:41.767Z,101086.38
2022-07-30T15:33:08.136Z,101090.88
2022-07-30T15:35:35.014Z,101087.94
2022-07-30T15:38:01.438Z,101089.28
2022-07-30T15:40:28.011Z,101093.53
2022-07-30T15:42:54.397Z,101095.69
2022-07-30T15:45:20.754Z,101094.94
2022-07-30T15:47:47.148Z,101094.19
2022-07-30T15:50:13.531Z,101099.91
2022-07-30T15:52:39.912Z,101106.47
2022-07-30T15:55:06.382Z,101102.06
2022-07-30T15:57:32.763Z,101096.28
2022-07-30T15:59:59.113Z,101095.53
2022-07-30T16:02:25.535Z,101089.69
2022-07-30T16:04:51.889Z,101094.81
2022-07-30T16:07:19.167Z,101099.09
2022-07-30T16:09:45.539Z,101099.09
2022-07-30T16:12:11.945Z,101087.81
2022-07-30T16:14:38.305Z,101095.00
2022-07-30T16:17:05.089Z,101094.94
2022-07-30T16:19:31.437Z,101093.59
2022-07-30T16:21:57.878Z,101094.34
2022-07-30T16:24:24.250Z,101090.47
2022-07-30T16:26:50.721Z,101094.91
2022-07-30T16:29:18.028Z,101098.44
2022-07-30T16:31:44.398Z,101098.59
2022-07-30T16:34:10.749Z,101099.94
2022-07-30T16:36:37.158Z,101098.66
2022-07-30T16:39:03.819Z,101097.50
2022-07-30T16:41:30.179Z,101100.47
2022-07-30T16:43:56.527Z,101106.06
2022-07-30T16:46:23.777Z,101098.72
2022-07-30T16:48:50.459Z,101117.47
2022-07-30T16:51:17.010Z,101118.13
2022-07-30T16:53:43.402Z,101116.69
2022-07-30T16:56:09.784Z,101114.63
2022-07-30T16:58:36.152Z,101108.00
2022-07-30T17:01:02.621Z,101105.81
2022-07-30T17:03:29.037Z,101110.91
2022-07-30T17:05:55.390Z,101108.00
2022-07-30T17:08:24.887Z,101116.66
2022-07-30T17:10:51.795Z,101105.75
2022-07-30T17:13:18.177Z,101112.34
2022-07-30T17:15:44.550Z,101120.28
2022-07-30T17:18:13.236Z,101114.63
2022-07-30T17:20:39.584Z,101121.03
2022-07-30T17:23:06.010Z,101126.81
2022-07-30T17:25:32.389Z,101121.69
2022-07-30T17:27:58.873Z,101134.06
2022-07-30T17:30:25.779Z,101131.88
2022-07-30T17:32:52.145Z,101123.50
2022-07-30T17:35:18.496Z,101125.66
2022-07-30T17:37:44.868Z,101128.00
2022-07-30T17:40:28.228Z,101129.34
2022-07-30T17:43:03.401Z,101126.63
2022-07-30T17:45:30.554Z,101131.81
2022-07-30T17:47:57.672Z,101128.66
2022-07-30T17:50:24.039Z,101138.56
2022-07-30T17:52:50.486Z,101133.28
2022-07-30T17:55:16.837Z,101136.09
2022-07-30T17:57:43.217Z,101135.75
2022-07-30T18:00:09.819Z,101139.22
2022-07-30T18:02:36.194Z,101130.69
2022-07-30T18:05:02.562Z,101134.00
2022-07-30T18:07:28.924Z,101135.38
2022-07-30T18:09:55.303Z,101132.41
2022-07-30T18:12:21.945Z,101138.19
2022-07-30T18:14:48.303Z,101146.13
2022-07-30T18:17:14.719Z,101136.75
2022-07-30T18:19:41.120Z,101146.94
2022-07-30T18:22:07.501Z,101146.22
2022-07-30T18:24:33.858Z,101147.63
2022-07-30T18:27:06.510Z,101143.97
2022-07-30T18:29:32.856Z,101152.75
2022-07-30T18:31:59.208Z,101144.13
2022-07-30T18:34:25.586Z,101149.91
2022-07-30T18:36:53.058Z,101145.59
2022-07-30T18:39:19.418Z,101154.28
2022-07-30T18:41:45.766Z,101157.03
2022-07-30T18:44:12.121Z,101160.22
2022-07-30T18:46:39.435Z,101154.34
2022-07-30T18:49:26.550Z,101168.75
2022-07-30T18:51:53.150Z,101165.13
2022-07-30T18:54:19.520Z,101163.69
2022-07-30T18:56:45.878Z,101169.50
2022-07-30T18:59:12.234Z,101170.25
2022-07-30T19:01:39.154Z,101176.03
2022-07-30T19:04:05.887Z,101179.69
2022-07-30T19:06:32.253Z,101176.03
2022-07-30T19:09:00.053Z,101191.25
2022-07-30T19:11:26.426Z,101181.84
2022-07-30T19:13:53.054Z,101193.44
2022-07-30T19:16:20.629Z,101192.00
2022-07-30T19:18:46.990Z,101197.06
2022-07-30T19:21:14.270Z,101196.31
2022-07-30T19:23:40.734Z,101199.22
2022-07-30T19:26:07.089Z,101197.78
2022-07-30T19:28:34.659Z,101204.25
2022-07-30T19:31:01.015Z,101199.88
2022-07-30T19:33:27.371Z,101209.31
2022-07-30T19:35:53.716Z,101213.63
2022-07-30T19:38:21.743Z,101207.09
2022-07-30T19:41:06.394Z,101217.91
2022-07-30T19:43:33.686Z,101217.91
2022-07-30T19:46:00.151Z,101206.34
2022-07-30T19:48:28.382Z,101213.56
2022-07-30T19:50:55.846Z,101216.44
2022-07-30T19:53:22.218Z,101207.09
2022-07-30T19:55:48.603Z,101216.44
2022-07-30T19:58:18.926Z,101210.66
2022-07-30T20:00:49.292Z,101220.09
2022-07-30T20:03:16.307Z,101217.91
2022-07-30T20:05:54.952Z,101216.44
2022-07-30T20:08:25.167Z,101217.19
2022-07-30T20:10:51.514Z,101216.44
2022-07-30T20:13:17.877Z,101212.81
2022-07-30T20:15:46.194Z,101203.38
2022-07-30T20:18:12.634Z,101214.94
2022-07-30T20:20:38.990Z,101212.06
2022-07-30T20:23:07.278Z,101214.94
2022-07-30T20:25:37.164Z,101216.38
2022-07-30T20:28:04.100Z,101212.00
2022-07-30T20:30:31.018Z,101212.00
2022-07-30T20:32:57.391Z,101212.00
2022-07-30T20:35:26.389Z,101212.00
2022-07-30T20:37:54.799Z,101210.50
2022-07-30T20:40:22.192Z,101210.50
2022-07-30T20:42:49.404Z,101209.03
2022-07-30T20:45:15.966Z,101212.59
2022-07-30T20:47:43.295Z,101213.34
2022-07-30T20:50:14.337Z,101208.91
2022-07-30T20:52:40.959Z,101208.16
2022-07-30T20:55:14.538Z,101204.47
2022-07-30T20:57:56.849Z,101201.50
2022-07-30T21:00:28.963Z,101205.78
2022-07-30T21:02:55.352Z,101197.03
2022-07-30T21:05:21.959Z,101196.28
2022-07-30T21:07:48.402Z,101192.59
2022-07-30T21:10:19.958Z,101196.88
2022-07-30T21:12:50.975Z,101200.47
2022-07-30T21:15:24.087Z,101204.03
2022-07-30T21:17:50.896Z,101186.59
2022-07-30T21:20:17.298Z,101192.38
2022-07-30T21:22:54.586Z,101186.47
2022-07-30T21:25:21.119Z,101188.66
2022-07-30T21:27:50.012Z,101192.19
2022-07-30T21:30:16.722Z,101184.94
2022-07-30T21:32:43.461Z,101193.63
2022-07-30T21:35:11.662Z,101192.16
2022-07-30T21:37:38.272Z,101189.19
2022-07-30T21:40:09.571Z,101189.19
2022-07-30T21:42:36.094Z,101193.47
2022-07-30T21:45:14.776Z,101197.06
2022-07-30T21:47:41.861Z,101203.59
2022-07-30T21:50:14.538Z,101196.28
2022-07-30T21:52:42.598Z,101202.09
2022-07-30T21:55:09.768Z,101204.91
2022-07-30T21:57:39.772Z,101206.41
2022-07-30T22:00:16.326Z,101202.69
2022-07-30T22:02:53.323Z,101207.75
2022-07-30T22:05:21.766Z,101207.00
2022-07-30T22:07:49.858Z,101206.25
2022-07-30T22:10:16.366Z,101210.56
2022-07-30T22:12:48.085Z,101196.03
2022-07-30T22:15:15.030Z,101206.19
2022-07-30T22:17:58.193Z,101195.28
2022-07-30T22:20:27.278Z,101208.91
2022-07-30T22:22:53.978Z,101197.31
2022-07-30T22:25:21.501Z,101195.13
2022-07-30T22:27:56.278Z,101203.09
2022-07-30T22:30:23.990Z,101198.63
2022-07-30T22:32:52.846Z,101202.25
2022-07-30T22:35:20.797Z,101205.81
2022-07-30T22:38:00.339Z,101194.19
2022-07-30T22:40:26.717Z,101195.56
2022-07-30T22:42:53.073Z,101189.06
2022-07-30T22:45:22.965Z,101194.03
2022-07-30T22:48:06.581Z,101186.69
2022-07-30T22:50:40.060Z,101188.91
2022-07-30T22:54:02.816Z,101185.34
2022-07-30T22:55:53.383Z,101186.81
2022-07-30T22:58:21.848Z,101179.63
2022-07-30T23:00:48.447Z,101190.56
2022-07-30T23:03:16.894Z,101181.03
2022-07-30T23:05:43.316Z,101180.28
2022-07-30T23:08:30.899Z,101175.25
2022-07-30T23:10:57.945Z,101186.09
2022-07-30T23:13:24.315Z,101179.56
2022-07-30T23:15:50.713Z,101175.19
2022-07-30T23:18:17.065Z,101182.38
2022-07-30T23:20:43.427Z,101177.25
2022-07-30T23:23:11.410Z,101178.00
2022-07-30T23:25:39.028Z,101177.94
2022-07-30T23:28:05.754Z,101190.81
2022-07-30T23:30:34.261Z,101179.34
2022-07-30T23:33:00.808Z,101180.84
2022-07-30T23:35:27.179Z,101188.00
2022-07-30T23:37:53.539Z,101177.06
2022-07-30T23:40:19.918Z,101180.75
2022-07-30T23:42:46.818Z,101183.00
2022-07-30T23:45:13.219Z,101177.19
2022-07-30T23:48:02.018Z,101174.97
2022-07-30T23:50:26.245Z,101179.25
2022-07-30T23:52:52.610Z,101190.81
2022-07-30T23:55:18.978Z,101191.59
2022-07-30T23:57:45.336Z,101178.53
